createdAt,value
2019-02-02T00:00:45.369Z,80.50
2019-02-02T00:03:17.810Z,80.60
2019-02-02T00:05:50.630Z,80.30
2019-02-02T00:08:23.370Z,80.30
2019-02-02T00:10:55.445Z,80.00
2019-02-02T00:13:28.289Z,79.60
2019-02-02T00:16:01.531Z,79.40
2019-02-02T00:18:34.437Z,79.50
2019-02-02T00:21:06.990Z,79.10
2019-02-02T00:23:38.930Z,79.00
2019-02-02T00:26:12.131Z,79.00
2019-02-02T00:28:44.730Z,79.10
2019-02-02T00:31:15.630Z,78.80
2019-02-02T00:33:48.896Z,78.80
2019-02-02T00:36:21.064Z,78.90
2019-02-02T00:38:53.169Z,79.00
2019-02-02T00:41:26.092Z,79.00
2019-02-02T00:43:59.431Z,79.10
2019-02-02T00:46:31.550Z,79.20
2019-02-02T00:49:03.650Z,79.50
2019-02-02T00:51:37.210Z,79.40
2019-02-02T00:54:10.850Z,79.30
2019-02-02T00:56:44.652Z,79.50
2019-02-02T00:59:17.469Z,79.50
2019-02-02T01:01:49.850Z,79.60
2019-02-02T01:04:22.370Z,79.60
2019-02-02T01:06:55.477Z,79.50
2019-02-02T01:09:29.252Z,79.00
2019-02-02T01:12:02.910Z,79.40
2019-02-02T01:14:35.991Z,79.50
2019-02-02T01:17:08.330Z,79.50
2019-02-02T01:19:41.409Z,79.40
2019-02-02T01:22:14.829Z,79.10
2019-02-02T01:24:48.350Z,79.40
2019-02-02T01:27:20.430Z,79.50
2019-02-02T01:29:52.571Z,79.80
2019-02-02T01:32:25.070Z,79.80
2019-02-02T01:34:57.631Z,79.90
2019-02-02T01:37:30.570Z,79.80
2019-02-02T01:40:03.713Z,79.80
2019-02-02T01:42:36.369Z,79.70
2019-02-02T01:45:10.594Z,79.40
2019-02-02T01:47:43.870Z,79.40
2019-02-02T01:50:19.266Z,79.50
2019-02-02T01:52:52.769Z,79.00
2019-02-02T01:55:26.191Z,79.20
2019-02-02T01:57:59.029Z,79.50
2019-02-02T02:00:33.712Z,79.60
2019-02-02T02:03:06.889Z,79.70
2019-02-02T02:05:39.868Z,80.10
2019-02-02T02:08:12.910Z,80.20
2019-02-02T02:10:45.610Z,80.00
2019-02-02T02:13:18.376Z,79.60
2019-02-02T02:15:51.150Z,80.10
2019-02-02T02:18:24.811Z,80.00
2019-02-02T02:20:58.430Z,80.20
2019-02-02T02:23:29.990Z,80.20
2019-02-02T02:26:03.050Z,80.60
2019-02-02T02:28:36.091Z,80.30
2019-02-02T02:31:08.931Z,80.20
2019-02-02T02:33:42.309Z,80.60
2019-02-02T02:36:15.270Z,80.50
2019-02-02T02:38:47.870Z,80.80
2019-02-02T02:41:21.051Z,80.60
2019-02-02T02:43:53.873Z,80.40
2019-02-02T02:46:26.532Z,80.50
2019-02-02T02:48:58.710Z,80.50
2019-02-02T02:51:32.130Z,81.10
2019-02-02T02:54:04.490Z,81.30
2019-02-02T02:56:37.051Z,81.50
2019-02-02T02:59:10.051Z,81.40
2019-02-02T03:01:43.010Z,81.30
2019-02-02T03:04:15.069Z,81.20
2019-02-02T03:06:47.370Z,82.00
2019-02-02T03:09:19.328Z,81.30
2019-02-02T03:11:50.290Z,81.40
2019-02-02T03:14:22.710Z,81.60
2019-02-02T03:16:55.410Z,81.60
2019-02-02T03:19:28.293Z,81.60
2019-02-02T03:22:01.509Z,81.70
2019-02-02T03:24:33.809Z,81.80
2019-02-02T03:27:06.209Z,81.70
2019-02-02T03:29:39.811Z,81.60
2019-02-02T03:32:12.051Z,81.60
2019-02-02T03:34:44.450Z,81.60
2019-02-02T03:37:17.397Z,81.50
2019-02-02T03:39:50.331Z,81.40
2019-02-02T03:42:23.972Z,81.40
2019-02-02T03:44:57.250Z,81.60
2019-02-02T03:47:29.289Z,81.70
2019-02-02T03:50:01.990Z,81.80
2019-02-02T03:52:34.872Z,81.80
2019-02-02T03:55:08.789Z,81.90
2019-02-02T03:57:42.430Z,81.70
2019-02-02T04:00:16.890Z,82.20
2019-02-02T04:02:49.929Z,82.50
2019-02-02T04:05:26.533Z,82.60
2019-02-02T04:07:58.849Z,82.60
2019-02-02T04:10:30.974Z,82.50
2019-02-02T04:13:03.550Z,82.70
2019-02-02T04:15:35.870Z,82.70
2019-02-02T04:18:08.892Z,82.70
2019-02-02T04:20:42.209Z,82.30
2019-02-02T04:23:15.430Z,82.10
2019-02-02T04:25:48.930Z,82.20
2019-02-02T04:28:22.890Z,82.40
2019-02-02T04:30:55.409Z,82.60
2019-02-02T04:33:28.111Z,82.60
2019-02-02T04:36:01.091Z,82.60
2019-02-02T04:38:34.349Z,82.80
2019-02-02T04:41:07.308Z,82.60
2019-02-02T04:43:40.108Z,82.50
2019-02-02T04:46:12.589Z,82.50
2019-02-02T04:48:45.309Z,82.30
2019-02-02T04:51:18.633Z,82.10
2019-02-02T04:53:50.691Z,82.40
2019-02-02T04:56:23.328Z,82.70
2019-02-02T04:58:56.690Z,83.30
2019-02-02T05:01:29.450Z,83.50
2019-02-02T05:04:02.471Z,83.40
2019-02-02T05:06:35.849Z,83.40
2019-02-02T05:09:09.090Z,83.60
2019-02-02T05:11:41.710Z,83.60
2019-02-02T05:14:14.689Z,84.60
2019-02-02T05:16:47.269Z,84.20
2019-02-02T05:19:20.010Z,83.90
2019-02-02T05:21:52.611Z,83.60
2019-02-02T05:24:25.069Z,83.80
2019-02-02T05:26:58.030Z,83.70
2019-02-02T05:29:40.814Z,83.90
2019-02-02T05:32:04.489Z,83.50
2019-02-02T05:34:37.009Z,83.80
2019-02-02T05:37:09.730Z,83.70
2019-02-02T05:39:41.929Z,83.60
2019-02-02T05:42:14.050Z,84.00
2019-02-02T05:44:46.749Z,84.30
2019-02-02T05:47:19.408Z,84.00
2019-02-02T05:49:51.188Z,83.90
2019-02-02T05:52:23.912Z,84.20
2019-02-02T05:54:56.930Z,84.10
2019-02-02T05:57:30.232Z,84.10
2019-02-02T06:00:02.534Z,84.30
2019-02-02T06:02:35.428Z,84.20
2019-02-02T06:05:08.568Z,84.00
2019-02-02T06:07:42.049Z,84.60
2019-02-02T06:10:15.330Z,84.60
2019-02-02T06:12:47.330Z,84.80
2019-02-02T06:15:20.329Z,84.50
2019-02-02T06:17:53.171Z,84.80
2019-02-02T06:20:25.450Z,85.00
2019-02-02T06:22:57.969Z,85.00
2019-02-02T06:25:31.050Z,85.20
2019-02-02T06:28:04.032Z,85.30
2019-02-02T06:30:37.811Z,85.30
2019-02-02T06:33:10.151Z,85.70
2019-02-02T06:35:43.089Z,85.50
2019-02-02T06:38:16.431Z,85.60
2019-02-02T06:40:49.529Z,85.60
2019-02-02T06:43:22.011Z,85.70
2019-02-02T06:45:54.530Z,86.10
2019-02-02T06:48:27.026Z,86.10
2019-02-02T06:50:59.229Z,86.30
2019-02-02T06:53:32.829Z,86.10
2019-02-02T06:56:05.608Z,86.10
2019-02-02T06:58:37.770Z,86.00
2019-02-02T07:01:10.470Z,86.00
2019-02-02T07:03:43.869Z,86.40
2019-02-02T07:06:15.610Z,86.70
2019-02-02T07:08:47.792Z,86.60
2019-02-02T07:11:19.929Z,86.60
2019-02-02T07:13:52.291Z,86.60
2019-02-02T07:16:25.271Z,86.50
2019-02-02T07:18:58.386Z,86.60
2019-02-02T07:21:30.814Z,86.40
2019-02-02T07:24:03.171Z,86.30
2019-02-02T07:26:36.071Z,86.30
2019-02-02T07:29:08.650Z,86.60
2019-02-02T07:31:40.709Z,86.90
2019-02-02T07:34:13.911Z,86.80
2019-02-02T07:36:46.881Z,87.00
2019-02-02T07:39:19.649Z,86.70
2019-02-02T07:41:52.611Z,87.10
2019-02-02T07:44:25.052Z,87.20
2019-02-02T07:46:59.250Z,87.20
2019-02-02T07:49:32.449Z,86.90
2019-02-02T07:52:05.452Z,86.80
2019-02-02T07:54:38.210Z,87.20
2019-02-02T07:57:10.770Z,87.40
2019-02-02T07:59:43.011Z,87.70
2019-02-02T08:02:16.489Z,88.00
2019-02-02T08:04:49.009Z,87.90
2019-02-02T08:07:22.383Z,88.20
2019-02-02T08:09:55.028Z,88.30
2019-02-02T08:12:28.108Z,88.10
2019-02-02T08:15:01.710Z,88.20
2019-02-02T08:17:35.248Z,87.90
2019-02-02T08:20:08.067Z,87.70
2019-02-02T08:22:40.348Z,87.60
2019-02-02T08:25:13.508Z,87.50
2019-02-02T08:27:46.202Z,87.60
2019-02-02T08:30:20.007Z,87.90
2019-02-02T08:32:52.446Z,88.20
2019-02-02T08:35:24.968Z,88.70
2019-02-02T08:37:58.186Z,88.50
2019-02-02T08:40:30.412Z,88.60
2019-02-02T08:43:02.335Z,88.20
2019-02-02T08:45:34.882Z,88.40
2019-02-02T08:48:06.951Z,88.50
2019-02-02T08:50:41.090Z,88.60
2019-02-02T08:53:14.534Z,88.70
2019-02-02T08:55:47.081Z,88.70
2019-02-02T08:58:20.455Z,88.70
2019-02-02T09:01:03.440Z,88.70
2019-02-02T09:03:26.533Z,88.70
2019-02-02T09:05:59.363Z,88.80
2019-02-02T09:08:31.900Z,89.00
2019-02-02T09:11:04.719Z,89.30
2019-02-02T09:13:37.049Z,89.30
2019-02-02T09:16:09.239Z,89.30
2019-02-02T09:18:41.938Z,89.20
2019-02-02T09:21:14.824Z,89.20
2019-02-02T09:23:47.205Z,89.50
2019-02-02T09:26:19.725Z,89.40
2019-02-02T09:28:52.477Z,89.20
2019-02-02T09:31:24.124Z,89.30
2019-02-02T09:33:56.944Z,89.30
2019-02-02T09:36:29.526Z,89.50
2019-02-02T09:39:02.743Z,89.40
2019-02-02T09:41:34.943Z,89.70
2019-02-02T09:44:07.523Z,89.80
2019-02-02T09:46:40.273Z,89.80
2019-02-02T09:49:12.459Z,89.70
2019-02-02T09:51:45.242Z,90.00
2019-02-02T09:54:26.321Z,89.90
2019-02-02T09:56:51.255Z,89.90
2019-02-02T09:59:24.506Z,90.00
2019-02-02T10:01:57.653Z,89.70
2019-02-02T10:04:30.954Z,89.50
2019-02-02T10:07:02.834Z,89.40
2019-02-02T10:09:35.583Z,89.70
2019-02-02T10:12:07.520Z,89.90
2019-02-02T10:14:39.741Z,90.00
2019-02-02T10:17:12.275Z,90.20
2019-02-02T10:19:45.007Z,90.10
2019-02-02T10:22:16.886Z,90.20
2019-02-02T10:24:49.508Z,89.50
2019-02-02T10:27:22.047Z,89.10
2019-02-02T10:29:53.146Z,88.70
2019-02-02T10:32:25.336Z,87.90
2019-02-02T10:34:58.266Z,88.20
2019-02-02T10:37:31.527Z,88.20
2019-02-02T10:40:04.769Z,88.40
2019-02-02T10:42:38.366Z,89.30
2019-02-02T10:45:11.266Z,89.40
2019-02-02T10:47:43.330Z,89.30
2019-02-02T10:50:16.803Z,89.70
2019-02-02T10:52:48.887Z,90.00
2019-02-02T10:55:21.386Z,90.00
2019-02-02T10:57:54.266Z,89.80
2019-02-02T11:00:34.387Z,88.70
2019-02-02T11:03:06.528Z,88.50
2019-02-02T11:05:39.650Z,89.10
2019-02-02T11:08:12.177Z,87.10
2019-02-02T11:10:45.567Z,86.70
2019-02-02T11:13:19.219Z,86.20
2019-02-02T11:15:51.643Z,85.80
2019-02-02T11:18:24.022Z,86.10
2019-02-02T11:20:56.999Z,86.60
2019-02-02T11:23:30.609Z,87.10
2019-02-02T11:26:03.837Z,86.80
2019-02-02T11:28:36.744Z,86.60
2019-02-02T11:31:08.529Z,86.10
2019-02-02T11:33:44.262Z,86.70
2019-02-02T11:36:16.250Z,86.70
2019-02-02T11:38:48.891Z,86.50
2019-02-02T11:41:22.748Z,85.80
2019-02-02T11:43:54.688Z,85.10
2019-02-02T11:46:27.671Z,85.20
2019-02-02T11:49:00.671Z,85.10
2019-02-02T11:51:34.048Z,85.20
2019-02-02T11:54:06.370Z,84.70
2019-02-02T11:56:39.349Z,85.00
2019-02-02T11:59:12.289Z,85.10
2019-02-02T12:01:45.524Z,84.90
2019-02-02T12:04:18.714Z,85.90
2019-02-02T12:06:51.131Z,85.80
2019-02-02T12:09:23.508Z,85.90
2019-02-02T12:11:56.908Z,85.40
2019-02-02T12:14:30.049Z,84.60
2019-02-02T12:17:02.248Z,84.60
2019-02-02T12:19:34.448Z,84.80
2019-02-02T12:22:07.788Z,85.20
2019-02-02T12:24:40.608Z,84.80
2019-02-02T12:27:12.948Z,85.50
2019-02-02T12:29:46.268Z,85.60
2019-02-02T12:32:26.439Z,85.00
2019-02-02T12:34:53.478Z,85.20
2019-02-02T12:37:26.009Z,85.40
2019-02-02T12:39:58.568Z,85.40
2019-02-02T12:42:31.110Z,86.00
2019-02-02T12:45:04.289Z,85.70
2019-02-02T12:47:37.477Z,86.20
2019-02-02T12:50:09.959Z,86.50
2019-02-02T12:52:42.830Z,86.00
2019-02-02T12:55:16.984Z,85.10
2019-02-02T12:57:50.376Z,85.40
2019-02-02T13:00:23.385Z,84.90
2019-02-02T13:02:57.165Z,84.20
2019-02-02T13:05:30.530Z,84.30
2019-02-02T13:08:05.335Z,84.70
2019-02-02T13:10:37.605Z,85.50
2019-02-02T13:13:10.604Z,85.50
2019-02-02T13:15:42.924Z,84.60
2019-02-02T13:18:15.183Z,85.00
2019-02-02T13:20:47.664Z,84.90
2019-02-02T13:23:21.143Z,84.50
2019-02-02T13:26:04.662Z,85.30
2019-02-02T13:28:28.604Z,85.40
2019-02-02T13:31:00.565Z,85.10
2019-02-02T13:33:33.426Z,84.40
2019-02-02T13:36:06.684Z,84.70
2019-02-02T13:38:39.704Z,84.20
2019-02-02T13:41:12.003Z,84.50
2019-02-02T13:43:44.803Z,84.30
2019-02-02T13:46:17.603Z,84.40
2019-02-02T13:48:51.075Z,85.10
2019-02-02T13:51:24.145Z,84.50
2019-02-02T13:53:56.943Z,84.50
2019-02-02T13:56:29.107Z,84.50
2019-02-02T13:59:01.324Z,84.70
2019-02-02T14:01:41.795Z,84.10
2019-02-02T14:04:07.487Z,84.10
2019-02-02T14:06:40.945Z,84.50
2019-02-02T14:09:14.223Z,84.70
2019-02-02T14:11:47.804Z,84.50
2019-02-02T14:14:19.986Z,84.60
2019-02-02T14:16:51.184Z,84.50
2019-02-02T14:19:23.670Z,83.90
2019-02-02T14:21:56.763Z,84.00
2019-02-02T14:24:30.423Z,84.80
2019-02-02T14:27:02.424Z,84.70
2019-02-02T14:29:35.024Z,84.90
2019-02-02T14:32:08.463Z,85.50
2019-02-02T14:34:42.064Z,85.50
2019-02-02T14:37:15.323Z,84.80
2019-02-02T14:39:49.254Z,84.60
2019-02-02T14:42:22.690Z,85.00
2019-02-02T14:44:55.905Z,85.10
2019-02-02T14:47:28.283Z,85.10
2019-02-02T14:50:01.425Z,84.80
2019-02-02T14:52:34.425Z,84.70
2019-02-02T14:55:06.864Z,84.90
2019-02-02T14:57:39.410Z,84.30
2019-02-02T15:00:15.790Z,84.10
2019-02-02T15:02:48.303Z,84.00
2019-02-02T15:05:22.607Z,84.10
2019-02-02T15:07:55.183Z,84.50
2019-02-02T15:10:28.148Z,83.70
2019-02-02T15:13:00.946Z,83.00
2019-02-02T15:15:32.487Z,82.70
2019-02-02T15:18:05.084Z,82.70
2019-02-02T15:20:39.224Z,82.50
2019-02-02T15:23:11.785Z,83.10
2019-02-02T15:25:43.685Z,83.10
2019-02-02T15:28:16.286Z,83.00
2019-02-02T15:30:49.266Z,82.70
2019-02-02T15:33:22.305Z,83.10
2019-02-02T15:35:54.477Z,83.90
2019-02-02T15:38:28.226Z,84.30
2019-02-02T15:41:00.584Z,84.60
2019-02-02T15:43:33.824Z,85.10
2019-02-02T15:46:06.225Z,85.80
2019-02-02T15:48:38.845Z,85.60
2019-02-02T15:51:11.923Z,85.40
2019-02-02T15:53:44.205Z,85.40
2019-02-02T15:56:16.564Z,85.60
2019-02-02T15:58:49.124Z,86.10
2019-02-02T16:01:22.383Z,86.80
2019-02-02T16:03:55.325Z,86.60
2019-02-02T16:06:27.504Z,86.70
2019-02-02T16:09:00.484Z,86.80
2019-02-02T16:11:33.005Z,86.60
2019-02-02T16:14:03.785Z,86.40
2019-02-02T16:16:37.465Z,86.70
2019-02-02T16:19:10.268Z,86.60
2019-02-02T16:21:42.152Z,86.60
2019-02-02T16:24:14.853Z,86.30
2019-02-02T16:26:48.703Z,86.60
2019-02-02T16:29:21.864Z,86.80
2019-02-02T16:31:54.704Z,86.10
2019-02-02T16:34:27.186Z,86.40
2019-02-02T16:37:00.133Z,86.50
2019-02-02T16:39:32.178Z,86.30
2019-02-02T16:42:05.345Z,86.20
2019-02-02T16:44:37.866Z,85.60
2019-02-02T16:47:10.365Z,85.80
2019-02-02T16:49:42.985Z,85.80
2019-02-02T16:52:15.564Z,85.50
2019-02-02T16:54:48.623Z,85.70
2019-02-02T16:57:21.228Z,86.10
2019-02-02T16:59:54.287Z,86.00
2019-02-02T17:02:26.645Z,86.50
2019-02-02T17:04:59.583Z,85.50
2019-02-02T17:07:32.785Z,85.50
2019-02-02T17:10:06.565Z,84.90
2019-02-02T17:12:40.473Z,85.10
2019-02-02T17:15:13.895Z,84.80
2019-02-02T17:17:46.567Z,85.50
2019-02-02T17:20:20.863Z,85.50
2019-02-02T17:22:52.925Z,85.40
2019-02-02T17:25:26.085Z,85.20
2019-02-02T17:27:58.567Z,85.50
2019-02-02T17:30:33.944Z,85.80
2019-02-02T17:33:08.285Z,85.90
2019-02-02T17:35:40.823Z,85.60
2019-02-02T17:38:13.964Z,85.80
2019-02-02T17:40:47.529Z,86.00
2019-02-02T17:43:20.643Z,86.10
2019-02-02T17:45:52.704Z,86.10
2019-02-02T17:48:25.324Z,86.40
2019-02-02T17:50:58.431Z,86.10
2019-02-02T17:53:31.465Z,86.60
2019-02-02T17:56:04.004Z,86.60
2019-02-02T17:58:39.873Z,86.60
2019-02-02T18:01:11.205Z,86.10
2019-02-02T18:03:43.846Z,86.40
2019-02-02T18:06:15.622Z,86.80
2019-02-02T18:08:48.306Z,86.70
2019-02-02T18:11:21.164Z,86.80
2019-02-02T18:13:54.224Z,86.70
2019-02-02T18:16:26.743Z,86.30
2019-02-02T18:18:58.984Z,86.90
2019-02-02T18:21:31.765Z,86.90
2019-02-02T18:24:04.526Z,87.00
2019-02-02T18:26:37.804Z,86.90
2019-02-02T18:29:11.583Z,86.40
2019-02-02T18:31:44.964Z,86.20
2019-02-02T18:34:17.387Z,86.10
2019-02-02T18:36:50.546Z,86.40
2019-02-02T18:39:22.745Z,85.60
2019-02-02T18:41:56.106Z,85.10
2019-02-02T18:44:28.943Z,86.20
2019-02-02T18:47:00.924Z,86.00
2019-02-02T18:49:34.083Z,86.30
2019-02-02T18:52:06.367Z,86.40
2019-02-02T18:54:38.423Z,86.50
2019-02-02T18:57:10.723Z,86.50
2019-02-02T18:59:43.585Z,87.30
2019-02-02T19:02:16.004Z,86.60
2019-02-02T19:04:48.703Z,86.50
2019-02-02T19:07:22.224Z,86.40
2019-02-02T19:09:55.803Z,86.70
2019-02-02T19:12:28.326Z,86.50
2019-02-02T19:15:00.424Z,86.60
2019-02-02T19:17:33.086Z,86.70
2019-02-02T19:20:07.104Z,86.60
2019-02-02T19:22:40.484Z,86.80
2019-02-02T19:25:13.345Z,87.00
2019-02-02T19:27:47.123Z,87.30
2019-02-02T19:30:22.483Z,87.00
2019-02-02T19:32:55.424Z,86.70
2019-02-02T19:35:28.204Z,86.70
2019-02-02T19:38:01.244Z,86.90
2019-02-02T19:40:33.144Z,87.30
2019-02-02T19:43:05.764Z,87.30
2019-02-02T19:45:38.983Z,87.20
2019-02-02T19:48:11.764Z,87.00
2019-02-02T19:50:44.465Z,86.90
2019-02-02T19:53:17.184Z,87.20
2019-02-02T19:55:50.364Z,87.70
2019-02-02T19:58:23.664Z,87.80
2019-02-02T20:00:56.444Z,88.10
2019-02-02T20:03:28.884Z,88.10
2019-02-02T20:06:01.489Z,88.20
2019-02-02T20:08:34.463Z,88.30
2019-02-02T20:11:08.265Z,88.20
2019-02-02T20:13:40.864Z,88.30
2019-02-02T20:16:13.585Z,88.30
2019-02-02T20:18:46.584Z,88.20
2019-02-02T20:21:17.867Z,87.90
2019-02-02T20:23:50.284Z,88.20
2019-02-02T20:26:23.348Z,88.00
2019-02-02T20:28:55.104Z,88.60
2019-02-02T20:31:27.684Z,87.90
2019-02-02T20:34:00.704Z,88.10
2019-02-02T20:36:33.424Z,87.80
2019-02-02T20:39:07.183Z,88.20
2019-02-02T20:41:40.265Z,88.20
2019-02-02T20:44:12.346Z,88.20
2019-02-02T20:46:44.686Z,88.20
2019-02-02T20:49:16.745Z,88.20
2019-02-02T20:51:50.407Z,87.90
2019-02-02T20:54:23.964Z,87.90
2019-02-02T20:56:56.545Z,87.70
2019-02-02T20:59:28.884Z,87.80
2019-02-02T21:02:01.585Z,87.70
2019-02-02T21:04:33.465Z,87.70
2019-02-02T21:07:06.463Z,87.60
2019-02-02T21:09:39.225Z,87.20
2019-02-02T21:12:11.968Z,87.50
2019-02-02T21:14:45.488Z,87.50
2019-02-02T21:17:18.364Z,87.40
2019-02-02T21:19:51.048Z,87.40
2019-02-02T21:22:23.904Z,87.30
2019-02-02T21:24:56.982Z,87.50
2019-02-02T21:27:30.444Z,87.40
2019-02-02T21:30:04.143Z,87.40
2019-02-02T21:32:36.023Z,87.70
2019-02-02T21:35:09.092Z,87.60
2019-02-02T21:37:41.807Z,87.50
2019-02-02T21:40:15.583Z,87.60
2019-02-02T21:42:47.386Z,87.60
2019-02-02T21:45:20.805Z,87.60
2019-02-02T21:47:53.643Z,87.40
2019-02-02T21:50:26.743Z,87.70
2019-02-02T21:52:59.305Z,87.90
2019-02-02T21:55:32.043Z,87.90
2019-02-02T21:58:04.735Z,87.90
2019-02-02T22:00:44.563Z,88.00
2019-02-02T22:03:17.363Z,88.30
2019-02-02T22:05:50.484Z,88.70
2019-02-02T22:08:24.394Z,88.60
2019-02-02T22:10:57.363Z,88.60
2019-02-02T22:13:29.903Z,88.60
2019-02-02T22:16:02.842Z,87.70
2019-02-02T22:18:35.364Z,87.80
2019-02-02T22:21:07.976Z,87.70
2019-02-02T22:23:40.366Z,88.10
2019-02-02T22:26:12.865Z,88.40
2019-02-02T22:28:46.207Z,88.50
2019-02-02T22:31:19.243Z,88.60
2019-02-02T22:33:51.583Z,88.90
2019-02-02T22:36:27.515Z,89.10
2019-02-02T22:38:58.684Z,89.30
2019-02-02T22:41:31.504Z,89.30
2019-02-02T22:44:03.965Z,89.30
2019-02-02T22:46:37.005Z,89.40
2019-02-02T22:49:09.884Z,89.40
2019-02-02T22:51:42.507Z,89.70
2019-02-02T22:54:15.264Z,90.00
2019-02-02T22:56:47.683Z,90.20
2019-02-02T22:59:20.365Z,90.30
2019-02-02T23:02:00.126Z,90.40
2019-02-02T23:04:50.824Z,90.10
2019-02-02T23:07:47.323Z,90.30
2019-02-02T23:10:55.723Z,90.40
2019-02-02T23:13:52.406Z,90.20
2019-02-02T23:16:41.965Z,90.20
2019-02-02T23:19:15.523Z,90.20
2019-02-02T23:21:48.026Z,90.10
2019-02-02T23:24:20.364Z,90.10
2019-02-02T23:26:53.343Z,89.60
2019-02-02T23:29:26.006Z,89.60
2019-02-02T23:31:59.724Z,89.40
2019-02-02T23:34:33.246Z,89.30
2019-02-02T23:37:06.545Z,89.30
2019-02-02T23:39:38.852Z,89.20
2019-02-02T23:42:11.546Z,89.20
2019-02-02T23:44:44.264Z,89.30
2019-02-02T23:47:16.465Z,89.30
2019-02-02T23:49:49.284Z,88.90
2019-02-02T23:52:22.043Z,89.50
2019-02-02T23:54:55.283Z,89.50
2019-02-02T23:57:28.443Z,89.50
